createdAt,value
2018-08-12T00:00:02.638Z,23.88
2018-08-12T00:00:34.237Z,24.01
2018-08-12T00:01:05.824Z,24.02
2018-08-12T00:01:37.407Z,24.04
2018-08-12T00:02:09.010Z,24.06
2018-08-12T00:02:40.605Z,24.09
2018-08-12T00:03:12.229Z,24.08
2018-08-12T00:03:43.815Z,24.10
2018-08-12T00:04:15.441Z,24.11
2018-08-12T00:04:47.058Z,24.12
2018-08-12T00:05:18.697Z,24.12
2018-08-12T00:05:50.311Z,24.13
2018-08-12T00:06:21.891Z,24.15
2018-08-12T00:06:53.497Z,24.15
2018-08-12T00:07:25.079Z,24.13
2018-08-12T00:07:56.677Z,24.17
2018-08-12T00:08:28.309Z,24.16
2018-08-12T00:08:59.900Z,24.16
2018-08-12T00:09:31.491Z,24.18
2018-08-12T00:10:03.064Z,24.18
2018-08-12T00:10:34.661Z,24.18
2018-08-12T00:11:06.266Z,24.20
2018-08-12T00:11:37.849Z,24.22
2018-08-12T00:12:09.449Z,24.23
2018-08-12T00:12:41.065Z,24.23
2018-08-12T00:13:12.655Z,24.26
2018-08-12T00:13:44.239Z,24.25
2018-08-12T00:14:15.823Z,24.24
2018-08-12T00:14:47.421Z,24.24
2018-08-12T00:15:19.102Z,24.24
2018-08-12T00:15:50.619Z,24.23
2018-08-12T00:16:22.204Z,24.24
2018-08-12T00:16:53.801Z,24.24
2018-08-12T00:17:25.432Z,24.23
2018-08-12T00:17:57.033Z,24.23
2018-08-12T00:18:28.677Z,24.23
2018-08-12T00:19:00.264Z,24.23
2018-08-12T00:19:31.848Z,24.23
2018-08-12T00:20:03.445Z,24.23
2018-08-12T00:20:35.042Z,24.23
2018-08-12T00:21:06.674Z,24.23
2018-08-12T00:21:38.259Z,24.22
2018-08-12T00:22:09.860Z,24.22
2018-08-12T00:22:41.446Z,24.22
2018-08-12T00:23:13.031Z,24.23
2018-08-12T00:23:44.625Z,24.20
2018-08-12T00:24:16.215Z,24.22
2018-08-12T00:24:47.814Z,24.22
2018-08-12T00:25:19.445Z,24.22
2018-08-12T00:25:51.188Z,24.21
2018-08-12T00:26:22.786Z,24.21
2018-08-12T00:26:54.381Z,24.21
2018-08-12T00:27:25.976Z,24.21
2018-08-12T00:27:57.572Z,24.20
2018-08-12T00:28:29.186Z,24.21
2018-08-12T00:29:00.775Z,24.21
2018-08-12T00:29:32.373Z,24.20
2018-08-12T00:30:03.971Z,24.21
2018-08-12T00:30:35.556Z,24.20
2018-08-12T00:31:07.206Z,24.19
2018-08-12T00:31:38.789Z,24.19
2018-08-12T00:32:10.385Z,24.20
2018-08-12T00:32:41.957Z,24.20
2018-08-12T00:33:13.542Z,24.20
2018-08-12T00:33:45.129Z,24.20
2018-08-12T00:34:16.715Z,24.20
2018-08-12T00:34:48.289Z,24.20
2018-08-12T00:35:19.875Z,24.20
2018-08-12T00:35:51.459Z,24.18
2018-08-12T00:36:23.108Z,24.19
2018-08-12T00:36:54.705Z,24.18
2018-08-12T00:37:26.297Z,24.20
2018-08-12T00:37:57.897Z,24.20
2018-08-12T00:38:29.556Z,24.19
2018-08-12T00:39:01.159Z,24.20
2018-08-12T00:39:32.750Z,24.19
2018-08-12T00:40:04.345Z,24.19
2018-08-12T00:40:35.931Z,24.19
2018-08-12T00:41:07.527Z,24.19
2018-08-12T00:41:39.177Z,24.20
2018-08-12T00:42:10.764Z,24.18
2018-08-12T00:42:42.361Z,24.18
2018-08-12T00:43:13.959Z,24.19
2018-08-12T00:43:45.547Z,24.19
2018-08-12T00:44:17.635Z,24.19
2018-08-12T00:44:49.229Z,24.18
2018-08-12T00:45:20.814Z,24.19
2018-08-12T00:45:52.389Z,24.18
2018-08-12T00:46:23.989Z,24.16
2018-08-12T00:46:55.574Z,24.19
2018-08-12T00:47:27.173Z,24.19
2018-08-12T00:47:58.749Z,24.19
2018-08-12T00:48:30.355Z,24.19
2018-08-12T00:49:01.961Z,24.20
2018-08-12T00:49:33.556Z,24.20
2018-08-12T00:50:05.143Z,24.20
2018-08-12T00:50:36.750Z,24.21
2018-08-12T00:51:08.354Z,24.21
2018-08-12T00:51:39.954Z,24.21
2018-08-12T00:52:11.581Z,24.22
2018-08-12T00:52:43.166Z,24.21
2018-08-12T00:53:14.785Z,24.22
2018-08-12T00:53:46.371Z,24.23
2018-08-12T00:54:17.965Z,24.23
2018-08-12T00:54:49.581Z,24.23
2018-08-12T00:55:21.175Z,24.22
2018-08-12T00:55:52.773Z,24.23
2018-08-12T00:56:24.359Z,24.22
2018-08-12T00:56:55.962Z,24.25
2018-08-12T00:57:27.609Z,24.27
2018-08-12T00:57:59.196Z,24.28
2018-08-12T00:58:30.793Z,24.28
2018-08-12T00:59:02.376Z,24.27
2018-08-12T00:59:33.968Z,24.27
2018-08-12T01:00:05.559Z,24.27
2018-08-12T01:00:37.166Z,24.24
2018-08-12T01:01:08.755Z,24.27
2018-08-12T01:01:40.340Z,24.26
2018-08-12T01:02:11.938Z,24.22
2018-08-12T01:02:43.529Z,24.23
2018-08-12T01:03:15.115Z,24.24
2018-08-12T01:03:46.709Z,24.23
2018-08-12T01:04:18.325Z,24.23
2018-08-12T01:04:49.929Z,24.22
2018-08-12T01:05:21.533Z,24.21
2018-08-12T01:05:53.137Z,24.21
2018-08-12T01:06:24.722Z,24.20
2018-08-12T01:06:56.347Z,24.20
2018-08-12T01:07:27.941Z,24.18
2018-08-12T01:07:59.593Z,24.19
2018-08-12T01:08:31.173Z,24.19
2018-08-12T01:09:02.768Z,24.19
2018-08-12T01:09:34.341Z,24.18
2018-08-12T01:10:05.937Z,24.19
2018-08-12T01:10:37.555Z,24.19
2018-08-12T01:11:09.138Z,24.18
2018-08-12T01:11:40.718Z,24.17
2018-08-12T01:12:12.299Z,24.15
2018-08-12T01:12:43.897Z,24.18
2018-08-12T01:13:15.533Z,24.17
2018-08-12T01:13:47.171Z,24.16
2018-08-12T01:14:18.773Z,24.16
2018-08-12T01:14:50.369Z,24.16
2018-08-12T01:15:21.977Z,24.16
2018-08-12T01:15:53.567Z,24.16
2018-08-12T01:16:25.166Z,24.17
2018-08-12T01:16:56.751Z,24.17
2018-08-12T01:17:28.498Z,24.19
2018-08-12T01:18:00.088Z,24.20
2018-08-12T01:18:31.675Z,24.22
2018-08-12T01:19:03.260Z,24.22
2018-08-12T01:19:34.843Z,24.22
2018-08-12T01:20:06.423Z,24.22
2018-08-12T01:20:38.030Z,24.22
2018-08-12T01:21:09.629Z,24.19
2018-08-12T01:21:41.216Z,24.20
2018-08-12T01:22:12.803Z,24.20
2018-08-12T01:22:44.403Z,24.19
2018-08-12T01:23:16.002Z,24.19
2018-08-12T01:23:47.593Z,24.19
2018-08-12T01:24:19.225Z,24.19
2018-08-12T01:24:50.793Z,24.19
2018-08-12T01:25:22.388Z,24.21
2018-08-12T01:25:53.984Z,24.22
2018-08-12T01:26:25.585Z,24.22
2018-08-12T01:26:57.205Z,24.22
2018-08-12T01:27:28.794Z,24.22
2018-08-12T01:28:00.430Z,24.23
2018-08-12T01:28:32.058Z,24.26
2018-08-12T01:29:03.643Z,24.30
2018-08-12T01:29:35.273Z,24.22
2018-08-12T01:30:06.869Z,24.17
2018-08-12T01:30:38.459Z,24.10
2018-08-12T01:31:10.066Z,24.05
2018-08-12T01:31:41.642Z,24.00
2018-08-12T01:32:13.241Z,23.91
2018-08-12T01:32:44.869Z,23.80
2018-08-12T01:33:16.465Z,23.71
2018-08-12T01:33:48.060Z,23.56
2018-08-12T01:34:19.662Z,23.41
2018-08-12T01:34:51.301Z,23.27
2018-08-12T01:35:22.887Z,23.16
2018-08-12T01:35:54.562Z,23.05
2018-08-12T01:36:26.082Z,23.00
2018-08-12T01:36:57.667Z,22.96
2018-08-12T01:37:29.255Z,22.90
2018-08-12T01:38:00.875Z,22.92
2018-08-12T01:38:32.459Z,22.89
2018-08-12T01:39:04.047Z,22.87
2018-08-12T01:39:35.631Z,22.83
2018-08-12T01:40:07.218Z,22.79
2018-08-12T01:40:38.790Z,22.78
2018-08-12T01:41:10.394Z,22.76
2018-08-12T01:41:42.034Z,22.73
2018-08-12T01:42:13.638Z,22.72
2018-08-12T01:42:45.269Z,22.70
2018-08-12T01:43:16.861Z,22.69
2018-08-12T01:43:48.462Z,22.67
2018-08-12T01:44:20.066Z,22.66
2018-08-12T01:44:51.669Z,22.68
2018-08-12T01:45:23.247Z,22.65
2018-08-12T01:45:54.841Z,22.63
2018-08-12T01:46:26.444Z,22.61
2018-08-12T01:46:58.036Z,22.58
2018-08-12T01:47:29.629Z,22.53
2018-08-12T01:48:01.215Z,22.56
2018-08-12T01:48:32.803Z,22.61
2018-08-12T01:49:04.387Z,22.64
2018-08-12T01:49:35.985Z,22.66
2018-08-12T01:50:07.577Z,22.68
2018-08-12T01:50:39.193Z,22.71
2018-08-12T01:51:10.791Z,22.69
2018-08-12T01:51:42.375Z,22.65
2018-08-12T01:52:13.945Z,22.67
2018-08-12T01:52:45.558Z,22.63
2018-08-12T01:53:17.158Z,22.62
2018-08-12T01:53:48.812Z,22.64
2018-08-12T01:54:20.413Z,22.63
2018-08-12T01:54:52.009Z,22.63
2018-08-12T01:55:23.652Z,22.63
2018-08-12T01:55:55.239Z,22.60
2018-08-12T01:56:26.837Z,22.63
2018-08-12T01:56:58.426Z,22.58
2018-08-12T01:57:30.012Z,22.56
2018-08-12T01:58:01.607Z,22.49
2018-08-12T01:58:33.191Z,22.49
2018-08-12T01:59:04.779Z,22.42
2018-08-12T01:59:36.354Z,22.38
2018-08-12T02:00:07.943Z,22.31
2018-08-12T02:00:39.593Z,22.29
2018-08-12T02:01:11.198Z,22.29
2018-08-12T02:01:42.799Z,22.28
2018-08-12T02:02:14.379Z,22.24
2018-08-12T02:02:45.978Z,22.25
2018-08-12T02:03:17.564Z,22.24
2018-08-12T02:03:49.161Z,22.20
2018-08-12T02:04:20.765Z,22.15
2018-08-12T02:04:52.365Z,22.12
2018-08-12T02:05:23.970Z,22.10
2018-08-12T02:05:55.573Z,22.10
2018-08-12T02:06:27.189Z,22.09
2018-08-12T02:06:58.774Z,22.07
2018-08-12T02:07:30.363Z,22.05
2018-08-12T02:08:01.961Z,22.04
2018-08-12T02:08:33.541Z,22.05
2018-08-12T02:09:05.163Z,22.06
2018-08-12T02:09:36.769Z,22.07
2018-08-12T02:10:08.341Z,22.07
2018-08-12T02:10:39.923Z,22.06
2018-08-12T02:11:11.503Z,22.04
2018-08-12T02:11:43.132Z,22.02
2018-08-12T02:12:14.720Z,22.03
2018-08-12T02:12:46.337Z,21.99
2018-08-12T02:13:17.964Z,22.02
2018-08-12T02:13:49.547Z,22.03
2018-08-12T02:14:21.148Z,22.03
2018-08-12T02:14:52.745Z,22.04
2018-08-12T02:15:24.349Z,22.06
2018-08-12T02:15:55.935Z,22.03
2018-08-12T02:16:27.528Z,22.00
2018-08-12T02:16:59.155Z,21.99
2018-08-12T02:17:30.740Z,21.98
2018-08-12T02:18:02.313Z,21.99
2018-08-12T02:18:33.909Z,22.00
2018-08-12T02:19:05.499Z,21.97
2018-08-12T02:19:37.073Z,21.96
2018-08-12T02:20:08.689Z,21.97
2018-08-12T02:20:40.289Z,21.92
2018-08-12T02:21:11.905Z,21.94
2018-08-12T02:21:43.560Z,21.94
2018-08-12T02:22:15.196Z,21.93
2018-08-12T02:22:46.796Z,21.94
2018-08-12T02:23:18.387Z,21.92
2018-08-12T02:23:49.972Z,21.89
2018-08-12T02:24:21.563Z,21.93
2018-08-12T02:24:53.157Z,21.92
2018-08-12T02:25:25.483Z,21.97
2018-08-12T02:25:57.077Z,21.98
2018-08-12T02:26:28.663Z,21.97
2018-08-12T02:27:00.247Z,21.97
2018-08-12T02:27:31.889Z,21.94
2018-08-12T02:28:03.475Z,21.96
2018-08-12T02:28:35.059Z,21.96
2018-08-12T02:29:06.666Z,21.94
2018-08-12T02:29:38.255Z,21.98
2018-08-12T02:30:09.844Z,21.96
2018-08-12T02:30:41.443Z,22.02
2018-08-12T02:31:13.043Z,21.99
2018-08-12T02:31:44.627Z,22.01
2018-08-12T02:32:16.221Z,22.00
2018-08-12T02:32:47.826Z,22.03
2018-08-12T02:33:19.410Z,22.02
2018-08-12T02:33:50.991Z,22.03
2018-08-12T02:34:22.610Z,22.07
2018-08-12T02:34:54.199Z,22.07
2018-08-12T02:35:25.796Z,22.05
2018-08-12T02:35:57.433Z,22.04
2018-08-12T02:36:29.022Z,22.04
2018-08-12T02:37:00.594Z,22.04
2018-08-12T02:37:32.180Z,22.03
2018-08-12T02:38:03.763Z,22.03
2018-08-12T02:38:35.358Z,22.01
2018-08-12T02:39:06.947Z,21.97
2018-08-12T02:39:38.522Z,21.98
2018-08-12T02:40:10.122Z,21.97
2018-08-12T02:40:41.731Z,21.97
2018-08-12T02:41:13.366Z,21.98
2018-08-12T02:41:44.952Z,21.97
2018-08-12T02:42:16.540Z,21.98
2018-08-12T02:42:49.185Z,21.96
2018-08-12T02:43:20.780Z,21.93
2018-08-12T02:43:52.358Z,21.94
2018-08-12T02:44:23.954Z,21.94
2018-08-12T02:44:55.557Z,21.97
2018-08-12T02:45:27.143Z,21.97
2018-08-12T02:45:58.728Z,21.96
2018-08-12T02:46:30.370Z,21.97
2018-08-12T02:47:01.959Z,21.96
2018-08-12T02:47:33.566Z,21.96
2018-08-12T02:48:05.165Z,21.91
2018-08-12T02:48:36.765Z,21.91
2018-08-12T02:49:08.365Z,21.90
2018-08-12T02:49:39.993Z,21.92
2018-08-12T02:50:11.582Z,21.93
2018-08-12T02:50:43.167Z,21.92
2018-08-12T02:51:14.763Z,21.92
2018-08-12T02:51:46.351Z,21.89
2018-08-12T02:52:17.938Z,21.85
2018-08-12T02:52:49.592Z,21.80
2018-08-12T02:53:21.188Z,21.81
2018-08-12T02:53:52.805Z,21.81
2018-08-12T02:54:24.387Z,21.78
2018-08-12T02:54:55.976Z,21.76
2018-08-12T02:55:27.571Z,21.75
2018-08-12T02:55:59.190Z,21.70
2018-08-12T02:56:30.779Z,21.67
2018-08-12T02:57:02.367Z,21.66
2018-08-12T02:57:33.971Z,21.65
2018-08-12T02:58:05.546Z,21.62
2018-08-12T02:58:37.139Z,21.59
2018-08-12T02:59:08.733Z,21.58
2018-08-12T02:59:40.319Z,21.56
2018-08-12T03:00:11.903Z,21.55
2018-08-12T03:00:43.506Z,21.57
2018-08-12T03:01:15.279Z,21.52
2018-08-12T03:01:46.873Z,21.53
2018-08-12T03:02:18.460Z,21.53
2018-08-12T03:02:50.072Z,21.53
2018-08-12T03:03:21.658Z,21.55
2018-08-12T03:03:53.251Z,21.58
2018-08-12T03:04:24.847Z,21.63
2018-08-12T03:04:56.447Z,21.66
2018-08-12T03:05:28.019Z,21.68
2018-08-12T03:05:59.620Z,21.72
2018-08-12T03:06:31.246Z,21.75
2018-08-12T03:07:02.835Z,21.73
2018-08-12T03:07:34.429Z,21.74
2018-08-12T03:08:06.015Z,21.76
2018-08-12T03:08:37.618Z,21.77
2018-08-12T03:09:09.245Z,21.76
2018-08-12T03:09:40.822Z,21.75
2018-08-12T03:10:12.402Z,21.78
2018-08-12T03:10:44.034Z,21.86
2018-08-12T03:11:15.635Z,21.92
2018-08-12T03:11:47.223Z,21.95
2018-08-12T03:12:18.806Z,21.93
2018-08-12T03:12:50.411Z,21.90
2018-08-12T03:13:21.989Z,21.87
2018-08-12T03:13:53.626Z,21.87
2018-08-12T03:14:25.229Z,21.88
2018-08-12T03:14:56.825Z,21.87
2018-08-12T03:15:28.426Z,21.84
2018-08-12T03:16:00.031Z,21.85
2018-08-12T03:16:31.660Z,21.87
2018-08-12T03:17:03.251Z,21.88
2018-08-12T03:17:35.323Z,21.89
2018-08-12T03:18:06.893Z,21.89
2018-08-12T03:18:38.489Z,21.89
2018-08-12T03:19:10.074Z,21.85
2018-08-12T03:19:41.721Z,21.82
2018-08-12T03:20:13.330Z,21.80
2018-08-12T03:20:45.935Z,21.79
2018-08-12T03:21:17.605Z,21.77
2018-08-12T03:21:49.204Z,21.76
2018-08-12T03:22:20.826Z,21.74
2018-08-12T03:22:52.401Z,21.78
2018-08-12T03:23:23.996Z,21.82
2018-08-12T03:23:55.582Z,21.84
2018-08-12T03:24:27.172Z,21.83
2018-08-12T03:24:58.803Z,21.77
2018-08-12T03:25:30.383Z,21.73
2018-08-12T03:26:01.964Z,21.77
2018-08-12T03:26:33.537Z,21.77
2018-08-12T03:27:05.163Z,21.76
2018-08-12T03:27:36.765Z,21.77
2018-08-12T03:28:08.347Z,21.79
2018-08-12T03:28:39.931Z,21.78
2018-08-12T03:29:11.506Z,21.74
2018-08-12T03:29:43.091Z,21.71
2018-08-12T03:30:14.765Z,21.70
2018-08-12T03:30:46.312Z,21.77
2018-08-12T03:31:17.952Z,21.81
2018-08-12T03:31:49.555Z,21.82
2018-08-12T03:32:21.149Z,21.83
2018-08-12T03:32:52.749Z,21.76
2018-08-12T03:33:24.339Z,21.73
2018-08-12T03:33:55.923Z,21.72
2018-08-12T03:34:27.586Z,21.70
2018-08-12T03:34:59.208Z,21.71
2018-08-12T03:35:30.805Z,21.72
2018-08-12T03:36:02.391Z,21.71
2018-08-12T03:36:35.702Z,21.71
2018-08-12T03:37:07.287Z,21.68
2018-08-12T03:37:38.872Z,21.65
2018-08-12T03:38:10.454Z,21.65
2018-08-12T03:38:42.048Z,21.70
2018-08-12T03:39:13.629Z,21.63
2018-08-12T03:39:45.277Z,21.59
2018-08-12T03:40:16.849Z,21.52
2018-08-12T03:40:48.464Z,21.54
2018-08-12T03:41:20.054Z,21.58
2018-08-12T03:41:51.643Z,21.62
2018-08-12T03:42:23.228Z,21.66
2018-08-12T03:42:54.829Z,21.64
2018-08-12T03:43:26.419Z,21.65
2018-08-12T03:43:58.051Z,21.65
2018-08-12T03:44:29.661Z,21.71
2018-08-12T03:45:01.248Z,21.72
2018-08-12T03:45:32.835Z,21.74
2018-08-12T03:46:04.442Z,21.73
2018-08-12T03:46:36.036Z,21.72
2018-08-12T03:47:07.628Z,21.71
2018-08-12T03:47:39.225Z,21.65
2018-08-12T03:48:10.811Z,21.57
2018-08-12T03:48:42.408Z,21.51
2018-08-12T03:49:14.035Z,21.48
2018-08-12T03:49:45.651Z,21.46
2018-08-12T03:50:17.235Z,21.42
2018-08-12T03:50:48.833Z,21.41
2018-08-12T03:51:20.409Z,21.40
2018-08-12T03:51:51.993Z,21.39
2018-08-12T03:52:23.563Z,21.39
2018-08-12T03:52:55.158Z,21.39
2018-08-12T03:53:26.755Z,21.38
2018-08-12T03:53:58.347Z,21.34
2018-08-12T03:54:29.949Z,21.36
2018-08-12T03:55:01.541Z,21.35
2018-08-12T03:55:33.184Z,21.34
2018-08-12T03:56:04.772Z,21.33
2018-08-12T03:56:36.369Z,21.32
2018-08-12T03:57:07.969Z,21.32
2018-08-12T03:57:39.554Z,21.32
2018-08-12T03:58:11.153Z,21.33
2018-08-12T03:58:42.763Z,21.34
2018-08-12T03:59:14.381Z,21.33
2018-08-12T03:59:45.975Z,21.32
2018-08-12T04:00:17.600Z,21.30
2018-08-12T04:00:49.205Z,21.29
2018-08-12T04:01:20.791Z,21.27
2018-08-12T04:01:52.423Z,21.23
2018-08-12T04:02:24.046Z,21.23
2018-08-12T04:02:55.630Z,21.24
2018-08-12T04:03:27.225Z,21.25
2018-08-12T04:03:58.815Z,21.27
2018-08-12T04:04:30.399Z,21.30
2018-08-12T04:05:02.002Z,21.34
2018-08-12T04:05:33.587Z,21.37
2018-08-12T04:06:05.175Z,21.39
2018-08-12T04:06:36.772Z,21.41
2018-08-12T04:07:08.401Z,21.40
2018-08-12T04:07:39.997Z,21.40
2018-08-12T04:08:11.605Z,21.39
2018-08-12T04:08:43.195Z,21.38
2018-08-12T04:09:14.775Z,21.37
2018-08-12T04:09:46.363Z,21.35
2018-08-12T04:10:17.991Z,21.35
2018-08-12T04:10:49.565Z,21.38
2018-08-12T04:11:21.142Z,21.38
2018-08-12T04:11:52.732Z,21.34
2018-08-12T04:12:24.309Z,21.32
2018-08-12T04:12:55.899Z,21.30
2018-08-12T04:13:27.496Z,21.27
2018-08-12T04:13:59.082Z,21.28
2018-08-12T04:14:30.671Z,21.30
2018-08-12T04:15:02.298Z,21.30
2018-08-12T04:15:33.910Z,21.32
2018-08-12T04:16:05.485Z,21.31
2018-08-12T04:16:37.081Z,21.30
2018-08-12T04:17:08.695Z,21.30
2018-08-12T04:17:40.294Z,21.17
2018-08-12T04:18:11.899Z,21.31
2018-08-12T04:18:43.469Z,21.31
2018-08-12T04:19:15.063Z,21.32
2018-08-12T04:19:46.702Z,21.30
2018-08-12T04:20:18.279Z,21.29
2018-08-12T04:20:49.867Z,21.26
2018-08-12T04:21:21.452Z,21.23
2018-08-12T04:21:53.043Z,21.18
2018-08-12T04:22:24.643Z,21.20
2018-08-12T04:22:56.245Z,21.18
2018-08-12T04:23:27.845Z,21.16
2018-08-12T04:23:59.445Z,21.14
2018-08-12T04:24:31.084Z,21.15
2018-08-12T04:25:02.685Z,21.15
2018-08-12T04:25:34.265Z,21.12
2018-08-12T04:26:05.851Z,21.14
2018-08-12T04:26:37.435Z,21.14
2018-08-12T04:27:09.024Z,21.14
2018-08-12T04:27:40.639Z,21.16
2018-08-12T04:28:12.252Z,21.14
2018-08-12T04:28:43.835Z,21.13
2018-08-12T04:29:15.418Z,21.14
2018-08-12T04:29:47.003Z,21.15
2018-08-12T04:30:18.596Z,21.14
2018-08-12T04:30:50.189Z,21.14
2018-08-12T04:31:21.775Z,21.13
2018-08-12T04:31:53.363Z,21.13
2018-08-12T04:32:24.986Z,21.13
2018-08-12T04:32:56.581Z,21.13
2018-08-12T04:33:28.158Z,21.13
2018-08-12T04:33:59.747Z,21.13
2018-08-12T04:34:31.331Z,21.13
2018-08-12T04:35:02.915Z,21.12
2018-08-12T04:35:34.495Z,21.09
2018-08-12T04:36:06.080Z,21.09
2018-08-12T04:36:37.711Z,21.09
2018-08-12T04:37:09.310Z,21.09
2018-08-12T04:37:40.889Z,21.08
2018-08-12T04:38:12.470Z,21.10
2018-08-12T04:38:44.065Z,21.10
2018-08-12T04:39:15.683Z,21.08
2018-08-12T04:39:47.298Z,21.08
2018-08-12T04:40:18.897Z,21.08
2018-08-12T04:40:50.470Z,21.07
2018-08-12T04:41:22.095Z,21.07
2018-08-12T04:41:53.685Z,21.06
2018-08-12T04:42:25.271Z,21.08
2018-08-12T04:42:56.859Z,21.08
2018-08-12T04:43:28.457Z,21.08
2018-08-12T04:44:00.083Z,21.08
2018-08-12T04:44:31.667Z,21.09
2018-08-12T04:45:03.238Z,21.08
2018-08-12T04:45:34.825Z,21.10
2018-08-12T04:46:06.459Z,21.11
2018-08-12T04:46:38.045Z,21.14
2018-08-12T04:47:09.680Z,21.15
2018-08-12T04:47:41.283Z,21.17
2018-08-12T04:48:12.902Z,21.18
2018-08-12T04:48:44.497Z,21.20
2018-08-12T04:49:16.114Z,21.21
2018-08-12T04:49:47.692Z,21.24
2018-08-12T04:50:19.291Z,21.24
2018-08-12T04:50:50.879Z,21.24
2018-08-12T04:51:22.467Z,21.23
2018-08-12T04:51:54.065Z,21.19
2018-08-12T04:52:25.707Z,21.18
2018-08-12T04:52:57.309Z,21.16
2018-08-12T04:53:28.905Z,21.16
2018-08-12T04:54:00.481Z,21.16
2018-08-12T04:54:32.067Z,21.17
2018-08-12T04:55:03.656Z,21.19
2018-08-12T04:55:35.239Z,21.15
2018-08-12T04:56:06.842Z,21.15
2018-08-12T04:56:38.428Z,21.10
2018-08-12T04:57:10.030Z,21.10
2018-08-12T04:57:41.654Z,21.11
2018-08-12T04:58:13.225Z,21.11
2018-08-12T04:58:44.825Z,21.10
2018-08-12T04:59:16.427Z,21.11
2018-08-12T04:59:48.001Z,21.12
2018-08-12T05:00:19.587Z,21.08
2018-08-12T05:00:51.169Z,21.09
2018-08-12T05:01:22.765Z,21.07
2018-08-12T05:01:54.369Z,21.06
2018-08-12T05:02:25.972Z,21.04
2018-08-12T05:02:57.603Z,20.98
2018-08-12T05:03:29.187Z,21.01
2018-08-12T05:04:00.761Z,20.99
2018-08-12T05:04:32.333Z,21.01
2018-08-12T05:05:03.970Z,21.00
2018-08-12T05:05:35.549Z,20.99
2018-08-12T05:06:07.117Z,21.01
2018-08-12T05:06:38.702Z,21.04
2018-08-12T05:07:10.324Z,21.07
2018-08-12T05:07:41.930Z,21.10
2018-08-12T05:08:13.514Z,21.07
2018-08-12T05:08:45.099Z,21.06
2018-08-12T05:09:16.683Z,21.04
2018-08-12T05:09:48.271Z,21.02
2018-08-12T05:10:19.885Z,21.01
2018-08-12T05:10:51.511Z,21.00
2018-08-12T05:11:23.144Z,21.04
2018-08-12T05:11:54.731Z,21.08
2018-08-12T05:12:26.327Z,21.10
2018-08-12T05:12:57.901Z,21.10
2018-08-12T05:13:29.491Z,21.12
2018-08-12T05:14:01.075Z,21.15
2018-08-12T05:14:32.660Z,21.16
2018-08-12T05:15:04.262Z,21.16
2018-08-12T05:15:35.841Z,21.19
2018-08-12T05:16:07.469Z,21.21
2018-08-12T05:16:39.054Z,21.29
2018-08-12T05:17:10.633Z,20.89
2018-08-12T05:17:42.238Z,20.55
2018-08-12T05:18:13.823Z,20.12
2018-08-12T05:18:45.437Z,19.80
2018-08-12T05:19:17.023Z,19.59
2018-08-12T05:19:48.617Z,19.41
2018-08-12T05:20:20.203Z,19.40
2018-08-12T05:20:51.791Z,19.67
2018-08-12T05:21:23.380Z,19.95
2018-08-12T05:21:54.950Z,20.23
2018-08-12T05:22:26.573Z,20.49
2018-08-12T05:22:58.173Z,20.73
2018-08-12T05:23:29.774Z,20.93
2018-08-12T05:24:01.363Z,21.10
2018-08-12T05:24:32.960Z,21.25
2018-08-12T05:25:04.541Z,21.39
2018-08-12T05:25:36.123Z,21.49
2018-08-12T05:26:07.717Z,21.60
2018-08-12T05:26:39.294Z,21.66
2018-08-12T05:27:10.894Z,21.75
2018-08-12T05:27:42.520Z,21.82
2018-08-12T05:28:14.117Z,21.88
2018-08-12T05:28:45.769Z,21.93
2018-08-12T05:29:17.408Z,21.97
2018-08-12T05:29:49.017Z,22.00
2018-08-12T05:30:20.621Z,22.03
2018-08-12T05:30:52.205Z,22.06
2018-08-12T05:31:23.801Z,22.09
2018-08-12T05:31:55.388Z,22.11
2018-08-12T05:32:26.985Z,22.14
2018-08-12T05:32:58.561Z,22.16
2018-08-12T05:33:30.154Z,22.17
2018-08-12T05:34:01.725Z,22.17
2018-08-12T05:34:33.351Z,22.18
2018-08-12T05:35:04.949Z,22.19
2018-08-12T05:35:36.539Z,22.18
2018-08-12T05:36:08.155Z,22.19
2018-08-12T05:36:39.733Z,22.19
2018-08-12T05:37:11.325Z,22.22
2018-08-12T05:37:42.920Z,22.23
2018-08-12T05:38:14.526Z,22.23
2018-08-12T05:38:46.115Z,22.23
2018-08-12T05:39:17.713Z,22.23
2018-08-12T05:39:49.328Z,22.22
2018-08-12T05:40:20.911Z,22.22
2018-08-12T05:40:52.495Z,22.22
2018-08-12T05:41:24.080Z,22.23
2018-08-12T05:41:55.676Z,22.26
2018-08-12T05:42:27.263Z,22.28
2018-08-12T05:42:58.862Z,22.29
2018-08-12T05:43:30.451Z,22.30
2018-08-12T05:44:02.046Z,22.32
2018-08-12T05:44:33.685Z,22.33
2018-08-12T05:45:05.280Z,22.34
2018-08-12T05:45:36.882Z,22.34
2018-08-12T05:46:08.471Z,22.34
2018-08-12T05:46:40.055Z,22.35
2018-08-12T05:47:11.629Z,22.33
2018-08-12T05:47:43.225Z,22.35
2018-08-12T05:48:14.808Z,22.36
2018-08-12T05:48:46.395Z,22.36
2018-08-12T05:49:18.010Z,22.37
2018-08-12T05:49:49.609Z,22.37
2018-08-12T05:50:21.200Z,22.38
2018-08-12T05:50:52.797Z,22.37
2018-08-12T05:51:24.399Z,22.35
2018-08-12T05:51:55.996Z,22.38
2018-08-12T05:52:27.583Z,22.38
2018-08-12T05:52:59.167Z,22.38
2018-08-12T05:53:30.760Z,22.38
2018-08-12T05:54:02.349Z,22.38
2018-08-12T05:54:33.984Z,22.39
2018-08-12T05:55:05.617Z,22.39
2018-08-12T05:55:37.221Z,22.40
2018-08-12T05:56:08.822Z,22.41
2018-08-12T05:56:40.406Z,22.42
2018-08-12T05:57:12.036Z,22.43
2018-08-12T05:57:43.612Z,22.43
2018-08-12T05:58:15.199Z,22.45
2018-08-12T05:58:46.802Z,22.45
2018-08-12T05:59:18.406Z,22.46
2018-08-12T05:59:50.035Z,22.46
2018-08-12T06:00:21.628Z,22.47
2018-08-12T06:00:53.219Z,22.47
2018-08-12T06:01:24.803Z,22.45
2018-08-12T06:01:56.401Z,22.45
2018-08-12T06:02:27.982Z,22.47
2018-08-12T06:02:59.567Z,22.47
2018-08-12T06:03:31.170Z,22.47
2018-08-12T06:04:02.750Z,22.48
2018-08-12T06:04:34.335Z,22.49
2018-08-12T06:05:05.973Z,22.49
2018-08-12T06:05:37.570Z,22.49
2018-08-12T06:06:09.159Z,22.50
2018-08-12T06:06:40.756Z,22.50
2018-08-12T06:07:12.329Z,22.51
2018-08-12T06:07:43.929Z,22.51
2018-08-12T06:08:15.525Z,22.51
2018-08-12T06:08:47.120Z,22.51
2018-08-12T06:09:18.765Z,22.52
2018-08-12T06:09:50.351Z,22.53
2018-08-12T06:10:21.992Z,22.53
2018-08-12T06:10:53.579Z,22.54
2018-08-12T06:11:25.161Z,22.54
2018-08-12T06:11:56.729Z,22.54
2018-08-12T06:12:28.351Z,22.54
2018-08-12T06:12:59.945Z,22.54
2018-08-12T06:13:31.546Z,22.55
2018-08-12T06:14:03.141Z,22.56
2018-08-12T06:14:34.766Z,22.56
2018-08-12T06:15:06.365Z,22.57
2018-08-12T06:15:37.964Z,22.57
2018-08-12T06:16:09.555Z,22.58
2018-08-12T06:16:41.142Z,22.56
2018-08-12T06:17:12.745Z,22.59
2018-08-12T06:17:44.332Z,22.59
2018-08-12T06:18:15.911Z,22.60
2018-08-12T06:18:47.495Z,22.61
2018-08-12T06:19:19.135Z,22.62
2018-08-12T06:19:50.719Z,22.63
2018-08-12T06:20:22.296Z,22.63
2018-08-12T06:20:53.884Z,22.64
2018-08-12T06:21:25.481Z,22.66
2018-08-12T06:21:57.058Z,22.68
2018-08-12T06:22:28.641Z,22.68
2018-08-12T06:23:00.243Z,22.69
2018-08-12T06:23:31.819Z,22.69
2018-08-12T06:24:03.389Z,22.70
2018-08-12T06:24:35.019Z,22.71
2018-08-12T06:25:06.593Z,22.71
2018-08-12T06:25:38.246Z,22.71
2018-08-12T06:26:09.832Z,22.72
2018-08-12T06:26:41.430Z,22.73
2018-08-12T06:27:13.038Z,22.73
2018-08-12T06:27:44.681Z,22.74
2018-08-12T06:28:16.253Z,22.75
2018-08-12T06:28:47.843Z,22.77
2018-08-12T06:29:19.427Z,22.77
2018-08-12T06:29:51.051Z,22.79
2018-08-12T06:30:22.675Z,22.79
2018-08-12T06:30:54.259Z,22.79
2018-08-12T06:31:25.873Z,22.78
2018-08-12T06:31:57.453Z,22.80
2018-08-12T06:32:29.035Z,22.81
2018-08-12T06:33:00.609Z,22.80
2018-08-12T06:33:32.199Z,22.80
2018-08-12T06:34:03.788Z,22.81
2018-08-12T06:34:35.371Z,22.80
2018-08-12T06:35:06.964Z,22.80
2018-08-12T06:35:38.625Z,22.80
2018-08-12T06:36:10.211Z,22.81
2018-08-12T06:36:41.818Z,22.81
2018-08-12T06:37:13.420Z,22.80
2018-08-12T06:37:45.011Z,22.81
2018-08-12T06:38:16.601Z,22.81
2018-08-12T06:38:48.187Z,22.80
2018-08-12T06:39:19.781Z,22.80
2018-08-12T06:39:51.389Z,22.80
2018-08-12T06:40:22.981Z,22.77
2018-08-12T06:40:54.581Z,22.79
2018-08-12T06:41:26.185Z,22.79
2018-08-12T06:41:57.775Z,22.79
2018-08-12T06:42:29.363Z,22.79
2018-08-12T06:43:00.947Z,22.78
2018-08-12T06:43:32.531Z,22.78
2018-08-12T06:44:04.178Z,22.78
2018-08-12T06:44:35.746Z,22.78
2018-08-12T06:45:07.343Z,22.78
2018-08-12T06:45:38.987Z,22.79
2018-08-12T06:46:10.590Z,22.78
2018-08-12T06:46:42.171Z,22.78